sensor_id;sensor_type;location;lat;lon;timestamp;P1;durP1;ratioP1;P2;durP2;ratioP2
56770;SDS011;42641;59.794;17.616;2022-10-31T00:00:12;5.10;;;2.70;;
56770;SDS011;42641;59.794;17.616;2022-10-31T00:02:41;6.70;;;2.50;;
56770;SDS011;42641;59.794;17.616;2022-10-31T00:05:08;8.00;;;2.87;;
56770;SDS011;42641;59.794;17.616;2022-10-31T00:07:34;6.77;;;2.80;;
56770;SDS011;42641;59.794;17.616;2022-10-31T00:10:01;4.00;;;2.30;;
56770;SDS011;42641;59.794;17.616;2022-10-31T00:12:27;5.27;;;2.40;;
56770;SDS011;42641;59.794;17.616;2022-10-31T00:14:53;7.57;;;2.93;;
56770;SDS011;42641;59.794;17.616;2022-10-31T00:17:19;7.50;;;2.73;;
56770;SDS011;42641;59.794;17.616;2022-10-31T00:19:46;6.83;;;3.00;;
56770;SDS011;42641;59.794;17.616;2022-10-31T00:22:12;4.73;;;2.70;;
56770;SDS011;42641;59.794;17.616;2022-10-31T00:24:39;5.37;;;2.77;;
56770;SDS011;42641;59.794;17.616;2022-10-31T00:27:05;8.40;;;3.20;;
56770;SDS011;42641;59.794;17.616;2022-10-31T00:29:31;8.00;;;2.77;;
56770;SDS011;42641;59.794;17.616;2022-10-31T00:31:58;4.57;;;2.53;;
56770;SDS011;42641;59.794;17.616;2022-10-31T00:34:24;7.23;;;3.03;;
56770;SDS011;42641;59.794;17.616;2022-10-31T00:36:51;4.97;;;2.43;;
56770;SDS011;42641;59.794;17.616;2022-10-31T00:39:17;4.37;;;2.83;;
56770;SDS011;42641;59.794;17.616;2022-10-31T00:41:44;3.30;;;2.70;;
56770;SDS011;42641;59.794;17.616;2022-10-31T00:44:11;4.83;;;2.90;;
56770;SDS011;42641;59.794;17.616;2022-10-31T00:46:38;4.50;;;2.67;;
56770;SDS011;42641;59.794;17.616;2022-10-31T00:49:04;7.83;;;3.23;;
56770;SDS011;42641;59.794;17.616;2022-10-31T00:51:30;5.13;;;2.77;;
56770;SDS011;42641;59.794;17.616;2022-10-31T00:53:58;5.70;;;3.00;;
56770;SDS011;42641;59.794;17.616;2022-10-31T00:56:24;9.93;;;2.90;;
56770;SDS011;42641;59.794;17.616;2022-10-31T00:58:51;5.47;;;2.90;;
56770;SDS011;42641;59.794;17.616;2022-10-31T01:01:18;5.37;;;2.73;;
56770;SDS011;42641;59.794;17.616;2022-10-31T01:03:45;8.00;;;2.83;;
56770;SDS011;42641;59.794;17.616;2022-10-31T01:06:12;6.90;;;2.87;;
56770;SDS011;42641;59.794;17.616;2022-10-31T01:08:39;6.90;;;3.20;;
56770;SDS011;42641;59.794;17.616;2022-10-31T01:11:07;9.23;;;2.87;;
56770;SDS011;42641;59.794;17.616;2022-10-31T01:13:40;6.07;;;2.63;;
56770;SDS011;42641;59.794;17.616;2022-10-31T01:16:08;11.03;;;3.17;;
56770;SDS011;42641;59.794;17.616;2022-10-31T01:18:38;4.70;;;2.30;;
56770;SDS011;42641;59.794;17.616;2022-10-31T01:21:06;5.53;;;3.10;;
56770;SDS011;42641;59.794;17.616;2022-10-31T01:23:35;4.83;;;3.37;;
56770;SDS011;42641;59.794;17.616;2022-10-31T01:26:03;5.63;;;3.30;;
56770;SDS011;42641;59.794;17.616;2022-10-31T01:28:33;5.93;;;2.50;;
56770;SDS011;42641;59.794;17.616;2022-10-31T01:31:02;4.40;;;2.70;;
56770;SDS011;42641;59.794;17.616;2022-10-31T01:33:30;7.20;;;2.93;;
56770;SDS011;42641;59.794;17.616;2022-10-31T01:35:56;12.37;;;3.37;;
56770;SDS011;42641;59.794;17.616;2022-10-31T01:38:23;4.80;;;2.90;;
56770;SDS011;42641;59.794;17.616;2022-10-31T01:40:50;7.43;;;2.97;;
56770;SDS011;42641;59.794;17.616;2022-10-31T01:43:17;5.30;;;2.80;;
56770;SDS011;42641;59.794;17.616;2022-10-31T01:45:46;5.87;;;2.77;;
56770;SDS011;42641;59.794;17.616;2022-10-31T01:48:19;6.10;;;3.10;;
56770;SDS011;42641;59.794;17.616;2022-10-31T01:50:56;5.33;;;3.00;;
56770;SDS011;42641;59.794;17.616;2022-10-31T01:53:23;8.57;;;3.10;;
56770;SDS011;42641;59.794;17.616;2022-10-31T01:55:50;4.73;;;2.90;;
56770;SDS011;42641;59.794;17.616;2022-10-31T01:58:20;6.93;;;2.97;;
56770;SDS011;42641;59.794;17.616;2022-10-31T02:00:51;4.47;;;3.07;;
56770;SDS011;42641;59.794;17.616;2022-10-31T02:03:21;6.83;;;3.00;;
56770;SDS011;42641;59.794;17.616;2022-10-31T02:05:49;4.17;;;2.90;;
56770;SDS011;42641;59.794;17.616;2022-10-31T02:08:29;7.30;;;3.33;;
56770;SDS011;42641;59.794;17.616;2022-10-31T02:10:58;4.67;;;2.63;;
56770;SDS011;42641;59.794;17.616;2022-10-31T02:13:27;5.67;;;3.27;;
56770;SDS011;42641;59.794;17.616;2022-10-31T02:15:56;6.70;;;2.70;;
56770;SDS011;42641;59.794;17.616;2022-10-31T02:18:24;4.90;;;3.00;;
56770;SDS011;42641;59.794;17.616;2022-10-31T02:20:56;6.20;;;3.20;;
56770;SDS011;42641;59.794;17.616;2022-10-31T02:26:31;6.37;;;2.80;;
56770;SDS011;42641;59.794;17.616;2022-10-31T02:43:40;5.27;;;3.00;;
56770;SDS011;42641;59.794;17.616;2022-10-31T02:46:27;4.33;;;2.70;;
56770;SDS011;42641;59.794;17.616;2022-10-31T02:48:55;7.10;;;3.17;;
56770;SDS011;42641;59.794;17.616;2022-10-31T02:51:26;6.83;;;3.73;;
56770;SDS011;42641;59.794;17.616;2022-10-31T02:53:53;10.37;;;3.10;;
56770;SDS011;42641;59.794;17.616;2022-10-31T02:56:19;9.83;;;3.47;;
56770;SDS011;42641;59.794;17.616;2022-10-31T02:58:53;7.77;;;3.07;;
56770;SDS011;42641;59.794;17.616;2022-10-31T03:09:29;4.10;;;2.43;;
56770;SDS011;42641;59.794;17.616;2022-10-31T03:12:11;5.13;;;2.83;;
56770;SDS011;42641;59.794;17.616;2022-10-31T03:17:44;5.90;;;2.37;;
56770;SDS011;42641;59.794;17.616;2022-10-31T03:20:12;3.77;;;2.20;;
56770;SDS011;42641;59.794;17.616;2022-10-31T03:22:41;5.40;;;2.80;;
56770;SDS011;42641;59.794;17.616;2022-10-31T03:25:08;4.37;;;2.30;;
56770;SDS011;42641;59.794;17.616;2022-10-31T03:27:37;6.43;;;2.93;;
56770;SDS011;42641;59.794;17.616;2022-10-31T03:30:06;6.03;;;2.87;;
56770;SDS011;42641;59.794;17.616;2022-10-31T03:32:47;5.80;;;2.53;;
56770;SDS011;42641;59.794;17.616;2022-10-31T03:35:17;7.33;;;2.97;;
56770;SDS011;42641;59.794;17.616;2022-10-31T03:37:46;4.70;;;3.03;;
56770;SDS011;42641;59.794;17.616;2022-10-31T03:40:15;6.37;;;2.90;;
56770;SDS011;42641;59.794;17.616;2022-10-31T03:42:46;4.27;;;2.73;;
56770;SDS011;42641;59.794;17.616;2022-10-31T03:45:28;4.70;;;2.80;;
56770;SDS011;42641;59.794;17.616;2022-10-31T03:47:56;6.93;;;3.10;;
56770;SDS011;42641;59.794;17.616;2022-10-31T03:50:25;6.57;;;2.70;;
56770;SDS011;42641;59.794;17.616;2022-10-31T03:53:04;4.40;;;2.80;;
56770;SDS011;42641;59.794;17.616;2022-10-31T03:55:49;6.70;;;2.93;;
56770;SDS011;42641;59.794;17.616;2022-10-31T03:58:27;7.43;;;3.00;;
56770;SDS011;42641;59.794;17.616;2022-10-31T04:01:05;8.10;;;3.17;;
56770;SDS011;42641;59.794;17.616;2022-10-31T04:03:35;6.03;;;3.07;;
56770;SDS011;42641;59.794;17.616;2022-10-31T04:06:08;5.67;;;3.00;;
56770;SDS011;42641;59.794;17.616;2022-10-31T04:08:44;7.00;;;2.90;;
56770;SDS011;42641;59.794;17.616;2022-10-31T04:11:18;7.23;;;2.90;;
56770;SDS011;42641;59.794;17.616;2022-10-31T04:13:56;4.70;;;3.00;;
56770;SDS011;42641;59.794;17.616;2022-10-31T04:16:25;3.97;;;2.80;;
56770;SDS011;42641;59.794;17.616;2022-10-31T04:18:52;5.17;;;2.90;;
56770;SDS011;42641;59.794;17.616;2022-10-31T04:21:19;5.63;;;2.90;;
56770;SDS011;42641;59.794;17.616;2022-10-31T04:23:52;6.27;;;3.20;;
56770;SDS011;42641;59.794;17.616;2022-10-31T04:26:24;6.27;;;3.33;;
56770;SDS011;42641;59.794;17.616;2022-10-31T04:28:51;7.07;;;3.03;;
56770;SDS011;42641;59.794;17.616;2022-10-31T04:31:17;6.77;;;3.30;;
56770;SDS011;42641;59.794;17.616;2022-10-31T04:33:46;12.17;;;3.63;;
56770;SDS011;42641;59.794;17.616;2022-10-31T04:36:13;7.90;;;3.50;;
56770;SDS011;42641;59.794;17.616;2022-10-31T04:38:39;6.90;;;3.30;;
56770;SDS011;42641;59.794;17.616;2022-10-31T04:41:15;7.60;;;3.20;;
56770;SDS011;42641;59.794;17.616;2022-10-31T04:43:51;4.83;;;3.03;;
56770;SDS011;42641;59.794;17.616;2022-10-31T04:46:17;7.20;;;3.50;;
56770;SDS011;42641;59.794;17.616;2022-10-31T04:48:44;5.00;;;3.03;;
56770;SDS011;42641;59.794;17.616;2022-10-31T04:51:10;6.47;;;3.10;;
56770;SDS011;42641;59.794;17.616;2022-10-31T04:53:37;7.63;;;3.23;;
56770;SDS011;42641;59.794;17.616;2022-10-31T04:56:22;7.23;;;3.60;;
56770;SDS011;42641;59.794;17.616;2022-10-31T04:58:55;6.87;;;3.07;;
56770;SDS011;42641;59.794;17.616;2022-10-31T05:01:23;8.23;;;3.30;;
56770;SDS011;42641;59.794;17.616;2022-10-31T05:03:49;6.50;;;3.30;;
56770;SDS011;42641;59.794;17.616;2022-10-31T05:06:16;7.37;;;3.20;;
56770;SDS011;42641;59.794;17.616;2022-10-31T05:08:43;7.10;;;3.50;;
56770;SDS011;42641;59.794;17.616;2022-10-31T05:11:10;6.03;;;3.20;;
56770;SDS011;42641;59.794;17.616;2022-10-31T05:13:37;7.03;;;3.40;;
56770;SDS011;42641;59.794;17.616;2022-10-31T05:16:13;10.23;;;4.33;;
56770;SDS011;42641;59.794;17.616;2022-10-31T05:19:00;7.90;;;3.90;;
56770;SDS011;42641;59.794;17.616;2022-10-31T05:21:45;6.83;;;3.30;;
56770;SDS011;42641;59.794;17.616;2022-10-31T05:24:11;9.10;;;4.00;;
56770;SDS011;42641;59.794;17.616;2022-10-31T05:26:39;9.03;;;4.00;;
56770;SDS011;42641;59.794;17.616;2022-10-31T05:29:06;5.47;;;3.50;;
56770;SDS011;42641;59.794;17.616;2022-10-31T05:31:32;11.47;;;3.57;;
56770;SDS011;42641;59.794;17.616;2022-10-31T05:33:58;7.43;;;3.83;;
56770;SDS011;42641;59.794;17.616;2022-10-31T05:36:43;8.83;;;3.50;;
56770;SDS011;42641;59.794;17.616;2022-10-31T05:39:18;10.60;;;4.10;;
56770;SDS011;42641;59.794;17.616;2022-10-31T05:41:53;8.93;;;3.70;;
56770;SDS011;42641;59.794;17.616;2022-10-31T05:44:22;7.57;;;4.30;;
56770;SDS011;42641;59.794;17.616;2022-10-31T05:47:11;7.23;;;3.50;;
56770;SDS011;42641;59.794;17.616;2022-10-31T05:50:13;8.90;;;3.47;;
56770;SDS011;42641;59.794;17.616;2022-10-31T05:52:47;9.17;;;3.67;;
56770;SDS011;42641;59.794;17.616;2022-10-31T05:55:27;6.73;;;3.33;;
56770;SDS011;42641;59.794;17.616;2022-10-31T05:58:13;5.20;;;3.80;;
56770;SDS011;42641;59.794;17.616;2022-10-31T06:00:45;6.93;;;3.43;;
56770;SDS011;42641;59.794;17.616;2022-10-31T06:03:12;8.67;;;3.70;;
56770;SDS011;42641;59.794;17.616;2022-10-31T06:05:46;7.03;;;3.80;;
56770;SDS011;42641;59.794;17.616;2022-10-31T06:08:13;8.13;;;4.10;;
56770;SDS011;42641;59.794;17.616;2022-10-31T06:10:40;7.30;;;3.77;;
56770;SDS011;42641;59.794;17.616;2022-10-31T06:13:07;8.40;;;3.97;;
56770;SDS011;42641;59.794;17.616;2022-10-31T06:15:41;9.13;;;3.50;;
56770;SDS011;42641;59.794;17.616;2022-10-31T06:18:08;6.67;;;3.60;;
56770;SDS011;42641;59.794;17.616;2022-10-31T06:20:45;8.20;;;3.60;;
56770;SDS011;42641;59.794;17.616;2022-10-31T06:23:11;5.37;;;3.30;;
56770;SDS011;42641;59.794;17.616;2022-10-31T06:25:40;12.30;;;3.80;;
56770;SDS011;42641;59.794;17.616;2022-10-31T06:28:07;9.20;;;4.20;;
56770;SDS011;42641;59.794;17.616;2022-10-31T06:30:47;9.90;;;4.37;;
56770;SDS011;42641;59.794;17.616;2022-10-31T06:33:15;6.80;;;4.10;;
56770;SDS011;42641;59.794;17.616;2022-10-31T06:35:50;6.20;;;4.00;;
56770;SDS011;42641;59.794;17.616;2022-10-31T06:38:17;8.20;;;4.40;;
56770;SDS011;42641;59.794;17.616;2022-10-31T06:40:44;8.10;;;4.67;;
56770;SDS011;42641;59.794;17.616;2022-10-31T06:43:21;9.00;;;4.20;;
56770;SDS011;42641;59.794;17.616;2022-10-31T06:45:49;8.87;;;4.40;;
56770;SDS011;42641;59.794;17.616;2022-10-31T06:48:44;10.03;;;4.80;;
56770;SDS011;42641;59.794;17.616;2022-10-31T06:51:32;9.13;;;4.73;;
56770;SDS011;42641;59.794;17.616;2022-10-31T06:53:58;11.40;;;5.10;;
56770;SDS011;42641;59.794;17.616;2022-10-31T06:56:25;11.27;;;4.90;;
56770;SDS011;42641;59.794;17.616;2022-10-31T06:58:55;14.77;;;5.03;;
56770;SDS011;42641;59.794;17.616;2022-10-31T07:01:40;13.07;;;5.10;;
56770;SDS011;42641;59.794;17.616;2022-10-31T07:04:08;9.23;;;4.30;;
56770;SDS011;42641;59.794;17.616;2022-10-31T07:06:35;12.20;;;4.67;;
56770;SDS011;42641;59.794;17.616;2022-10-31T07:09:02;12.93;;;5.53;;
56770;SDS011;42641;59.794;17.616;2022-10-31T07:11:29;12.10;;;5.50;;
56770;SDS011;42641;59.794;17.616;2022-10-31T07:13:57;14.87;;;5.40;;
56770;SDS011;42641;59.794;17.616;2022-10-31T07:16:23;12.50;;;5.73;;
56770;SDS011;42641;59.794;17.616;2022-10-31T07:18:49;12.57;;;5.30;;
56770;SDS011;42641;59.794;17.616;2022-10-31T07:21:16;9.30;;;4.67;;
56770;SDS011;42641;59.794;17.616;2022-10-31T07:23:42;11.77;;;5.07;;
56770;SDS011;42641;59.794;17.616;2022-10-31T07:26:29;11.33;;;5.20;;
56770;SDS011;42641;59.794;17.616;2022-10-31T07:28:55;12.77;;;5.27;;
56770;SDS011;42641;59.794;17.616;2022-10-31T07:31:24;8.10;;;4.63;;
56770;SDS011;42641;59.794;17.616;2022-10-31T07:33:53;8.23;;;4.70;;
56770;SDS011;42641;59.794;17.616;2022-10-31T07:36:39;16.20;;;5.30;;
56770;SDS011;42641;59.794;17.616;2022-10-31T07:39:05;11.83;;;5.10;;
56770;SDS011;42641;59.794;17.616;2022-10-31T07:41:34;11.37;;;4.87;;
56770;SDS011;42641;59.794;17.616;2022-10-31T07:44:00;11.73;;;5.17;;
56770;SDS011;42641;59.794;17.616;2022-10-31T07:46:29;10.30;;;4.97;;
56770;SDS011;42641;59.794;17.616;2022-10-31T07:49:14;15.90;;;5.10;;
56770;SDS011;42641;59.794;17.616;2022-10-31T07:52:18;12.93;;;5.13;;
56770;SDS011;42641;59.794;17.616;2022-10-31T07:55:23;17.70;;;5.43;;
56770;SDS011;42641;59.794;17.616;2022-10-31T07:57:59;12.87;;;4.90;;
56770;SDS011;42641;59.794;17.616;2022-10-31T08:00:38;12.47;;;5.53;;
56770;SDS011;42641;59.794;17.616;2022-10-31T08:03:08;14.63;;;5.50;;
56770;SDS011;42641;59.794;17.616;2022-10-31T08:05:54;11.53;;;5.40;;
56770;SDS011;42641;59.794;17.616;2022-10-31T08:08:45;11.97;;;5.50;;
56770;SDS011;42641;59.794;17.616;2022-10-31T08:11:11;14.70;;;5.67;;
56770;SDS011;42641;59.794;17.616;2022-10-31T08:13:38;18.17;;;5.20;;
56770;SDS011;42641;59.794;17.616;2022-10-31T08:16:04;19.17;;;6.97;;
56770;SDS011;42641;59.794;17.616;2022-10-31T08:18:35;19.97;;;6.07;;
56770;SDS011;42641;59.794;17.616;2022-10-31T08:21:04;18.20;;;5.93;;
56770;SDS011;42641;59.794;17.616;2022-10-31T08:23:31;15.63;;;6.70;;
56770;SDS011;42641;59.794;17.616;2022-10-31T08:25:57;18.07;;;6.77;;
56770;SDS011;42641;59.794;17.616;2022-10-31T08:28:23;21.57;;;6.70;;
56770;SDS011;42641;59.794;17.616;2022-10-31T08:30:52;20.17;;;7.20;;
56770;SDS011;42641;59.794;17.616;2022-10-31T08:33:47;18.70;;;7.97;;
56770;SDS011;42641;59.794;17.616;2022-10-31T08:36:19;18.43;;;7.83;;
56770;SDS011;42641;59.794;17.616;2022-10-31T08:39:06;22.80;;;7.13;;
56770;SDS011;42641;59.794;17.616;2022-10-31T08:41:33;17.13;;;7.50;;
56770;SDS011;42641;59.794;17.616;2022-10-31T08:44:00;18.00;;;7.37;;
56770;SDS011;42641;59.794;17.616;2022-10-31T08:46:27;24.00;;;8.33;;
56770;SDS011;42641;59.794;17.616;2022-10-31T08:48:53;22.63;;;7.50;;
56770;SDS011;42641;59.794;17.616;2022-10-31T08:51:20;17.53;;;7.27;;
56770;SDS011;42641;59.794;17.616;2022-10-31T08:53:50;13.90;;;6.73;;
56770;SDS011;42641;59.794;17.616;2022-10-31T08:56:35;17.37;;;7.20;;
56770;SDS011;42641;59.794;17.616;2022-10-31T08:59:05;19.87;;;7.20;;
56770;SDS011;42641;59.794;17.616;2022-10-31T09:01:54;17.33;;;8.00;;
56770;SDS011;42641;59.794;17.616;2022-10-31T09:04:20;18.17;;;7.83;;
56770;SDS011;42641;59.794;17.616;2022-10-31T09:06:46;19.60;;;8.23;;
56770;SDS011;42641;59.794;17.616;2022-10-31T09:09:13;19.23;;;7.80;;
56770;SDS011;42641;59.794;17.616;2022-10-31T09:11:40;17.73;;;8.03;;
56770;SDS011;42641;59.794;17.616;2022-10-31T09:14:35;16.07;;;8.17;;
56770;SDS011;42641;59.794;17.616;2022-10-31T09:17:34;17.47;;;7.97;;
56770;SDS011;42641;59.794;17.616;2022-10-31T09:20:22;14.57;;;7.97;;
56770;SDS011;42641;59.794;17.616;2022-10-31T09:22:55;23.50;;;8.80;;
56770;SDS011;42641;59.794;17.616;2022-10-31T09:25:45;17.10;;;8.23;;
56770;SDS011;42641;59.794;17.616;2022-10-31T09:28:34;16.80;;;7.83;;
56770;SDS011;42641;59.794;17.616;2022-10-31T09:31:08;14.10;;;8.00;;
56770;SDS011;42641;59.794;17.616;2022-10-31T09:33:52;14.07;;;8.10;;
56770;SDS011;42641;59.794;17.616;2022-10-31T09:36:35;17.90;;;8.07;;
56770;SDS011;42641;59.794;17.616;2022-10-31T09:39:14;17.67;;;8.83;;
56770;SDS011;42641;59.794;17.616;2022-10-31T09:41:47;14.43;;;8.33;;
56770;SDS011;42641;59.794;17.616;2022-10-31T09:47:33;19.03;;;8.97;;
56770;SDS011;42641;59.794;17.616;2022-10-31T09:50:52;13.53;;;7.60;;
56770;SDS011;42641;59.794;17.616;2022-10-31T09:56:15;13.90;;;7.77;;
56770;SDS011;42641;59.794;17.616;2022-10-31T09:58:53;17.73;;;8.67;;
56770;SDS011;42641;59.794;17.616;2022-10-31T10:01:28;12.60;;;7.77;;
56770;SDS011;42641;59.794;17.616;2022-10-31T10:04:02;17.97;;;8.27;;
56770;SDS011;42641;59.794;17.616;2022-10-31T10:06:55;11.43;;;7.83;;
56770;SDS011;42641;59.794;17.616;2022-10-31T10:09:40;14.37;;;7.73;;
56770;SDS011;42641;59.794;17.616;2022-10-31T10:15:47;12.03;;;6.77;;
56770;SDS011;42641;59.794;17.616;2022-10-31T10:18:42;9.63;;;6.50;;
56770;SDS011;42641;59.794;17.616;2022-10-31T10:21:28;14.63;;;7.87;;
56770;SDS011;42641;59.794;17.616;2022-10-31T10:26:58;13.70;;;7.53;;
56770;SDS011;42641;59.794;17.616;2022-10-31T10:29:49;12.17;;;7.10;;
56770;SDS011;42641;59.794;17.616;2022-10-31T10:32:23;10.20;;;6.37;;
56770;SDS011;42641;59.794;17.616;2022-10-31T10:34:54;12.57;;;7.23;;
56770;SDS011;42641;59.794;17.616;2022-10-31T10:37:39;9.87;;;6.53;;
56770;SDS011;42641;59.794;17.616;2022-10-31T10:42:41;10.03;;;6.13;;
56770;SDS011;42641;59.794;17.616;2022-10-31T10:45:29;10.30;;;6.80;;
56770;SDS011;42641;59.794;17.616;2022-10-31T10:48:15;10.57;;;6.40;;
56770;SDS011;42641;59.794;17.616;2022-10-31T10:50:51;9.53;;;6.17;;
56770;SDS011;42641;59.794;17.616;2022-10-31T10:53:33;11.67;;;6.13;;
56770;SDS011;42641;59.794;17.616;2022-10-31T10:59:27;10.77;;;6.57;;
56770;SDS011;42641;59.794;17.616;2022-10-31T11:01:56;9.20;;;6.13;;
56770;SDS011;42641;59.794;17.616;2022-10-31T11:04:31;10.20;;;6.30;;
56770;SDS011;42641;59.794;17.616;2022-10-31T11:07:05;10.53;;;6.90;;
56770;SDS011;42641;59.794;17.616;2022-10-31T11:09:36;13.20;;;7.23;;
56770;SDS011;42641;59.794;17.616;2022-10-31T11:12:10;9.67;;;6.60;;
56770;SDS011;42641;59.794;17.616;2022-10-31T11:14:50;10.73;;;6.30;;
56770;SDS011;42641;59.794;17.616;2022-10-31T11:17:25;10.37;;;5.90;;
56770;SDS011;42641;59.794;17.616;2022-10-31T11:22:43;8.60;;;5.37;;
56770;SDS011;42641;59.794;17.616;2022-10-31T11:25:23;7.80;;;5.60;;
56770;SDS011;42641;59.794;17.616;2022-10-31T11:28:09;7.40;;;5.40;;
56770;SDS011;42641;59.794;17.616;2022-10-31T11:30:42;11.67;;;5.07;;
56770;SDS011;42641;59.794;17.616;2022-10-31T11:33:34;9.30;;;5.37;;
56770;SDS011;42641;59.794;17.616;2022-10-31T11:36:23;9.03;;;5.40;;
56770;SDS011;42641;59.794;17.616;2022-10-31T11:38:55;7.63;;;5.20;;
56770;SDS011;42641;59.794;17.616;2022-10-31T11:41:25;7.60;;;5.67;;
56770;SDS011;42641;59.794;17.616;2022-10-31T11:44:00;8.40;;;5.33;;
56770;SDS011;42641;59.794;17.616;2022-10-31T11:46:32;7.60;;;5.37;;
56770;SDS011;42641;59.794;17.616;2022-10-31T11:49:01;9.57;;;5.97;;
56770;SDS011;42641;59.794;17.616;2022-10-31T11:51:29;6.60;;;5.07;;
56770;SDS011;42641;59.794;17.616;2022-10-31T11:53:59;9.80;;;5.83;;
56770;SDS011;42641;59.794;17.616;2022-10-31T11:56:37;8.53;;;6.10;;
56770;SDS011;42641;59.794;17.616;2022-10-31T11:59:25;11.63;;;6.10;;
56770;SDS011;42641;59.794;17.616;2022-10-31T12:01:54;8.50;;;6.00;;
56770;SDS011;42641;59.794;17.616;2022-10-31T12:04:30;8.47;;;5.60;;
56770;SDS011;42641;59.794;17.616;2022-10-31T12:07:09;9.27;;;6.13;;
56770;SDS011;42641;59.794;17.616;2022-10-31T12:09:36;9.73;;;5.53;;
56770;SDS011;42641;59.794;17.616;2022-10-31T12:17:34;8.17;;;5.67;;
56770;SDS011;42641;59.794;17.616;2022-10-31T12:37:21;7.27;;;5.70;;
56770;SDS011;42641;59.794;17.616;2022-10-31T12:45:30;8.50;;;6.10;;
56770;SDS011;42641;59.794;17.616;2022-10-31T12:48:23;9.13;;;5.57;;
56770;SDS011;42641;59.794;17.616;2022-10-31T12:59:26;7.43;;;5.50;;
56770;SDS011;42641;59.794;17.616;2022-10-31T13:02:04;11.03;;;6.27;;
56770;SDS011;42641;59.794;17.616;2022-10-31T13:07:29;8.67;;;6.33;;
56770;SDS011;42641;59.794;17.616;2022-10-31T13:12:38;9.83;;;5.90;;
56770;SDS011;42641;59.794;17.616;2022-10-31T13:15:16;11.30;;;6.47;;
56770;SDS011;42641;59.794;17.616;2022-10-31T13:18:21;10.70;;;6.37;;
56770;SDS011;42641;59.794;17.616;2022-10-31T13:20:38;9.33;;;5.23;;
56770;SDS011;42641;59.794;17.616;2022-10-31T13:25:54;7.03;;;5.10;;
56770;SDS011;42641;59.794;17.616;2022-10-31T13:28:28;8.80;;;5.60;;
56770;SDS011;42641;59.794;17.616;2022-10-31T13:31:09;7.35;;;4.97;;
56770;SDS011;42641;59.794;17.616;2022-10-31T13:33:38;8.77;;;4.93;;
56770;SDS011;42641;59.794;17.616;2022-10-31T13:36:42;9.67;;;5.10;;
56770;SDS011;42641;59.794;17.616;2022-10-31T13:42:22;8.20;;;5.30;;
56770;SDS011;42641;59.794;17.616;2022-10-31T13:45:06;10.77;;;5.73;;
56770;SDS011;42641;59.794;17.616;2022-10-31T13:47:54;9.13;;;5.37;;
56770;SDS011;42641;59.794;17.616;2022-10-31T13:50:27;11.60;;;6.17;;
56770;SDS011;42641;59.794;17.616;2022-10-31T13:55:44;7.97;;;5.97;;
56770;SDS011;42641;59.794;17.616;2022-10-31T13:58:30;10.10;;;6.40;;
56770;SDS011;42641;59.794;17.616;2022-10-31T14:01:10;8.73;;;5.40;;
56770;SDS011;42641;59.794;17.616;2022-10-31T14:03:47;9.30;;;5.23;;
56770;SDS011;42641;59.794;17.616;2022-10-31T14:06:23;12.63;;;6.03;;
56770;SDS011;42641;59.794;17.616;2022-10-31T14:09:05;8.80;;;5.77;;
56770;SDS011;42641;59.794;17.616;2022-10-31T14:11:41;9.40;;;6.07;;
56770;SDS011;42641;59.794;17.616;2022-10-31T14:14:13;7.53;;;5.37;;
56770;SDS011;42641;59.794;17.616;2022-10-31T14:16:40;12.13;;;6.03;;
56770;SDS011;42641;59.794;17.616;2022-10-31T14:19:14;10.20;;;5.90;;
56770;SDS011;42641;59.794;17.616;2022-10-31T14:21:46;8.77;;;5.53;;
56770;SDS011;42641;59.794;17.616;2022-10-31T14:24:15;9.43;;;5.53;;
56770;SDS011;42641;59.794;17.616;2022-10-31T14:27:01;10.57;;;5.57;;
56770;SDS011;42641;59.794;17.616;2022-10-31T14:29:31;10.60;;;6.17;;
56770;SDS011;42641;59.794;17.616;2022-10-31T14:32:01;12.60;;;6.30;;
56770;SDS011;42641;59.794;17.616;2022-10-31T14:37:19;9.53;;;5.60;;
56770;SDS011;42641;59.794;17.616;2022-10-31T14:42:58;13.67;;;6.20;;
56770;SDS011;42641;59.794;17.616;2022-10-31T14:46:07;11.60;;;6.00;;
56770;SDS011;42641;59.794;17.616;2022-10-31T14:49:07;12.03;;;6.20;;
56770;SDS011;42641;59.794;17.616;2022-10-31T14:51:58;11.67;;;6.13;;
56770;SDS011;42641;59.794;17.616;2022-10-31T14:54:32;11.63;;;6.47;;
56770;SDS011;42641;59.794;17.616;2022-10-31T14:57:06;9.53;;;5.77;;
56770;SDS011;42641;59.794;17.616;2022-10-31T14:59:40;10.73;;;5.63;;
56770;SDS011;42641;59.794;17.616;2022-10-31T15:02:22;14.00;;;6.63;;
56770;SDS011;42641;59.794;17.616;2022-10-31T15:05:00;10.40;;;6.20;;
56770;SDS011;42641;59.794;17.616;2022-10-31T15:07:28;10.90;;;5.67;;
56770;SDS011;42641;59.794;17.616;2022-10-31T15:09:59;12.93;;;6.47;;
56770;SDS011;42641;59.794;17.616;2022-10-31T15:12:44;10.40;;;6.07;;
56770;SDS011;42641;59.794;17.616;2022-10-31T15:15:14;11.53;;;6.60;;
56770;SDS011;42641;59.794;17.616;2022-10-31T15:17:55;15.73;;;7.53;;
56770;SDS011;42641;59.794;17.616;2022-10-31T15:20:26;13.27;;;6.43;;
56770;SDS011;42641;59.794;17.616;2022-10-31T15:22:55;15.30;;;6.90;;
56770;SDS011;42641;59.794;17.616;2022-10-31T15:25:24;16.30;;;6.77;;
56770;SDS011;42641;59.794;17.616;2022-10-31T15:27:52;15.30;;;6.90;;
56770;SDS011;42641;59.794;17.616;2022-10-31T15:30:20;12.67;;;7.63;;
56770;SDS011;42641;59.794;17.616;2022-10-31T15:32:51;15.30;;;8.03;;
56770;SDS011;42641;59.794;17.616;2022-10-31T15:35:36;12.07;;;7.10;;
56770;SDS011;42641;59.794;17.616;2022-10-31T15:38:03;12.83;;;6.33;;
56770;SDS011;42641;59.794;17.616;2022-10-31T15:40:29;18.53;;;8.83;;
56770;SDS011;42641;59.794;17.616;2022-10-31T15:45:24;10.83;;;6.50;;
56770;SDS011;42641;59.794;17.616;2022-10-31T15:48:00;12.67;;;9.20;;
56770;SDS011;42641;59.794;17.616;2022-10-31T15:50:31;14.20;;;9.70;;
56770;SDS011;42641;59.794;17.616;2022-10-31T15:52:58;11.73;;;6.97;;
56770;SDS011;42641;59.794;17.616;2022-10-31T15:55:27;10.60;;;6.17;;
56770;SDS011;42641;59.794;17.616;2022-10-31T15:57:56;13.37;;;6.33;;
56770;SDS011;42641;59.794;17.616;2022-10-31T16:03:02;12.27;;;7.07;;
56770;SDS011;42641;59.794;17.616;2022-10-31T16:05:35;13.17;;;6.50;;
56770;SDS011;42641;59.794;17.616;2022-10-31T16:13:58;9.17;;;4.93;;
56770;SDS011;42641;59.794;17.616;2022-10-31T16:16:31;9.70;;;5.33;;
56770;SDS011;42641;59.794;17.616;2022-10-31T16:19:00;15.20;;;6.13;;
56770;SDS011;42641;59.794;17.616;2022-10-31T16:21:37;9.97;;;5.33;;
56770;SDS011;42641;59.794;17.616;2022-10-31T16:24:05;11.17;;;5.20;;
56770;SDS011;42641;59.794;17.616;2022-10-31T16:27:06;10.83;;;5.23;;
56770;SDS011;42641;59.794;17.616;2022-10-31T16:29:43;6.87;;;5.20;;
56770;SDS011;42641;59.794;17.616;2022-10-31T16:32:28;12.13;;;5.87;;
56770;SDS011;42641;59.794;17.616;2022-10-31T16:37:38;9.87;;;5.23;;
56770;SDS011;42641;59.794;17.616;2022-10-31T16:40:10;11.33;;;5.17;;
56770;SDS011;42641;59.794;17.616;2022-10-31T16:42:38;10.33;;;5.80;;
56770;SDS011;42641;59.794;17.616;2022-10-31T16:45:06;11.70;;;5.40;;
56770;SDS011;42641;59.794;17.616;2022-10-31T16:47:33;10.80;;;5.00;;
56770;SDS011;42641;59.794;17.616;2022-10-31T16:50:00;10.47;;;5.07;;
56770;SDS011;42641;59.794;17.616;2022-10-31T16:52:27;10.20;;;4.80;;
56770;SDS011;42641;59.794;17.616;2022-10-31T16:54:53;7.30;;;4.93;;
56770;SDS011;42641;59.794;17.616;2022-10-31T16:57:22;9.63;;;5.40;;
56770;SDS011;42641;59.794;17.616;2022-10-31T16:59:53;10.60;;;5.43;;
56770;SDS011;42641;59.794;17.616;2022-10-31T17:02:19;9.97;;;5.13;;
56770;SDS011;42641;59.794;17.616;2022-10-31T17:04:46;11.83;;;4.80;;